sensor_id;sensor_type;location;lat;lon;timestamp;pressure;altitude;pressure_sealevel;temperature;humidity
69223;BME280;56514;51.816;-0.026;2023-02-16T00:02:30;101620.09;;;11.00;72.29
69223;BME280;56514;51.816;-0.026;2023-02-16T00:05:34;101631.47;;;11.00;72.25
69223;BME280;56514;51.816;-0.026;2023-02-16T00:08:46;101625.84;;;10.75;72.94
69223;BME280;56514;51.816;-0.026;2023-02-16T00:11:51;101630.69;;;10.67;73.24
69223;BME280;56514;51.816;-0.026;2023-02-16T00:15:20;101630.28;;;10.75;72.78
69223;BME280;56514;51.816;-0.026;2023-02-16T00:18:30;101628.53;;;10.58;72.75
69223;BME280;56514;51.816;-0.026;2023-02-16T00:21:39;101622.38;;;10.42;73.31
69223;BME280;56514;51.816;-0.026;2023-02-16T00:24:48;101630.31;;;10.42;73.52
69223;BME280;56514;51.816;-0.026;2023-02-16T00:27:57;101632.88;;;10.43;73.82
69223;BME280;56514;51.816;-0.026;2023-02-16T00:31:15;101629.13;;;10.47;73.25
69223;BME280;56514;51.816;-0.026;2023-02-16T00:34:34;101625.13;;;10.40;73.17
69223;BME280;56514;51.816;-0.026;2023-02-16T00:37:45;101614.19;;;10.31;73.81
69223;BME280;56514;51.816;-0.026;2023-02-16T00:40:55;101620.69;;;10.24;73.79
69223;BME280;56514;51.816;-0.026;2023-02-16T00:47:39;101619.31;;;10.17;73.49
69223;BME280;56514;51.816;-0.026;2023-02-16T00:50:31;101622.41;;;10.25;73.20
69223;BME280;56514;51.816;-0.026;2023-02-16T00:53:17;101624.69;;;10.15;73.89
69223;BME280;56514;51.816;-0.026;2023-02-16T00:56:02;101622.75;;;10.19;73.55
69223;BME280;56514;51.816;-0.026;2023-02-16T00:58:50;101620.44;;;10.13;73.73
69223;BME280;56514;51.816;-0.026;2023-02-16T01:01:36;101618.84;;;10.09;73.44
69223;BME280;56514;51.816;-0.026;2023-02-16T01:04:22;101611.03;;;10.07;73.75
69223;BME280;56514;51.816;-0.026;2023-02-16T01:07:11;101618.78;;;10.10;73.17
69223;BME280;56514;51.816;-0.026;2023-02-16T01:10:18;101615.91;;;10.15;72.91
69223;BME280;56514;51.816;-0.026;2023-02-16T01:13:24;101608.31;;;10.09;73.15
69223;BME280;56514;51.816;-0.026;2023-02-16T01:16:16;101610.19;;;10.07;73.21
69223;BME280;56514;51.816;-0.026;2023-02-16T01:19:02;101608.16;;;10.12;72.92
69223;BME280;56514;51.816;-0.026;2023-02-16T01:21:47;101611.22;;;10.03;73.18
69223;BME280;56514;51.816;-0.026;2023-02-16T01:24:32;101610.31;;;10.04;72.92
69223;BME280;56514;51.816;-0.026;2023-02-16T01:27:17;101606.03;;;10.01;73.11
69223;BME280;56514;51.816;-0.026;2023-02-16T01:30:03;101612.88;;;10.05;72.20
69223;BME280;56514;51.816;-0.026;2023-02-16T01:32:49;101617.16;;;10.08;72.30
69223;BME280;56514;51.816;-0.026;2023-02-16T01:35:35;101609.63;;;10.00;72.75
69223;BME280;56514;51.816;-0.026;2023-02-16T01:38:22;101605.97;;;10.03;72.05
69223;BME280;56514;51.816;-0.026;2023-02-16T01:44:19;101597.31;;;10.01;72.09
69223;BME280;56514;51.816;-0.026;2023-02-16T01:47:29;101593.25;;;9.94;72.81
69223;BME280;56514;51.816;-0.026;2023-02-16T01:50:21;101595.97;;;9.92;72.47
69223;BME280;56514;51.816;-0.026;2023-02-16T01:53:22;101602.81;;;9.96;72.35
69223;BME280;56514;51.816;-0.026;2023-02-16T01:56:22;101605.38;;;9.98;72.25
69223;BME280;56514;51.816;-0.026;2023-02-16T02:02:19;101597.91;;;10.06;71.88
69223;BME280;56514;51.816;-0.026;2023-02-16T02:08:41;101598.13;;;10.01;72.08
69223;BME280;56514;51.816;-0.026;2023-02-16T02:11:45;101597.16;;;10.04;71.93
69223;BME280;56514;51.816;-0.026;2023-02-16T02:14:36;101588.38;;;10.03;71.81
69223;BME280;56514;51.816;-0.026;2023-02-16T02:17:23;101592.78;;;10.03;71.75
69223;BME280;56514;51.816;-0.026;2023-02-16T02:42:12;101595.44;;;9.86;72.50
69223;BME280;56514;51.816;-0.026;2023-02-16T02:45:29;101592.44;;;9.93;72.37
69223;BME280;56514;51.816;-0.026;2023-02-16T02:48:15;101593.66;;;9.86;72.96
69223;BME280;56514;51.816;-0.026;2023-02-16T02:54:36;101594.13;;;9.77;73.27
69223;BME280;56514;51.816;-0.026;2023-02-16T02:57:44;101586.94;;;9.81;72.98
69223;BME280;56514;51.816;-0.026;2023-02-16T03:00:51;101581.03;;;9.76;73.25
69223;BME280;56514;51.816;-0.026;2023-02-16T03:03:42;101576.78;;;9.73;73.09
69223;BME280;56514;51.816;-0.026;2023-02-16T03:06:44;101571.59;;;9.72;73.25
69223;BME280;56514;51.816;-0.026;2023-02-16T03:09:32;101549.56;;;9.73;73.29
69223;BME280;56514;51.816;-0.026;2023-02-16T03:12:16;101545.84;;;9.77;72.65
69223;BME280;56514;51.816;-0.026;2023-02-16T03:15:22;101538.00;;;9.75;72.94
69223;BME280;56514;51.816;-0.026;2023-02-16T03:18:09;101537.94;;;9.77;72.57
69223;BME280;56514;51.816;-0.026;2023-02-16T03:21:15;101521.97;;;9.80;72.91
69223;BME280;56514;51.816;-0.026;2023-02-16T03:24:27;101518.09;;;9.87;72.57
69223;BME280;56514;51.816;-0.026;2023-02-16T03:27:36;101514.19;;;9.94;72.17
69223;BME280;56514;51.816;-0.026;2023-02-16T03:30:42;101511.38;;;9.97;72.04
69223;BME280;56514;51.816;-0.026;2023-02-16T03:33:32;101503.25;;;10.01;71.45
69223;BME280;56514;51.816;-0.026;2023-02-16T03:36:17;101494.34;;;10.04;71.49
69223;BME280;56514;51.816;-0.026;2023-02-16T03:39:03;101496.88;;;10.05;71.67
69223;BME280;56514;51.816;-0.026;2023-02-16T03:41:50;101498.53;;;10.08;71.49
69223;BME280;56514;51.816;-0.026;2023-02-16T03:44:36;101487.91;;;10.09;71.22
69223;BME280;56514;51.816;-0.026;2023-02-16T03:47:21;101483.50;;;10.10;71.15
69223;BME280;56514;51.816;-0.026;2023-02-16T03:50:06;101483.50;;;10.10;70.88
69223;BME280;56514;51.816;-0.026;2023-02-16T03:52:52;101488.78;;;10.10;70.54
69223;BME280;56514;51.816;-0.026;2023-02-16T03:55:50;101485.19;;;10.11;70.88
69223;BME280;56514;51.816;-0.026;2023-02-16T03:58:34;101482.56;;;10.11;70.97
69223;BME280;56514;51.816;-0.026;2023-02-16T04:01:19;101485.09;;;10.12;70.14
69223;BME280;56514;51.816;-0.026;2023-02-16T04:04:07;101484.06;;;10.15;70.77
69223;BME280;56514;51.816;-0.026;2023-02-16T04:06:52;101480.59;;;10.14;70.51
69223;BME280;56514;51.816;-0.026;2023-02-16T04:09:36;101481.34;;;10.16;70.52
69223;BME280;56514;51.816;-0.026;2023-02-16T04:12:21;101479.59;;;10.17;70.48
69223;BME280;56514;51.816;-0.026;2023-02-16T04:15:24;101483.00;;;10.19;70.61
69223;BME280;56514;51.816;-0.026;2023-02-16T04:18:09;101484.78;;;10.18;70.14
69223;BME280;56514;51.816;-0.026;2023-02-16T04:20:54;101483.00;;;10.19;70.25
69223;BME280;56514;51.816;-0.026;2023-02-16T04:23:39;101476.78;;;10.20;70.37
69223;BME280;56514;51.816;-0.026;2023-02-16T04:26:24;101472.44;;;10.19;70.14
69223;BME280;56514;51.816;-0.026;2023-02-16T04:29:09;101470.72;;;10.18;69.86
69223;BME280;56514;51.816;-0.026;2023-02-16T04:31:54;101455.78;;;10.18;70.14
69223;BME280;56514;51.816;-0.026;2023-02-16T04:34:39;101451.53;;;10.16;70.14
69223;BME280;56514;51.816;-0.026;2023-02-16T04:37:24;101454.16;;;10.16;70.01
69223;BME280;56514;51.816;-0.026;2023-02-16T04:40:12;101454.34;;;10.13;70.39
69223;BME280;56514;51.816;-0.026;2023-02-16T04:42:57;101446.41;;;10.13;70.30
69223;BME280;56514;51.816;-0.026;2023-02-16T04:45:42;101449.88;;;10.13;70.04
69223;BME280;56514;51.816;-0.026;2023-02-16T04:48:27;101443.88;;;10.11;70.13
69223;BME280;56514;51.816;-0.026;2023-02-16T04:51:12;101449.31;;;10.08;70.28
69223;BME280;56514;51.816;-0.026;2023-02-16T04:53:57;101450.28;;;10.06;70.15
69223;BME280;56514;51.816;-0.026;2023-02-16T04:56:43;101444.41;;;10.01;70.12
69223;BME280;56514;51.816;-0.026;2023-02-16T04:59:33;101452.50;;;9.98;70.01
69223;BME280;56514;51.816;-0.026;2023-02-16T05:02:18;101452.66;;;9.95;70.12
69223;BME280;56514;51.816;-0.026;2023-02-16T05:05:03;101447.38;;;9.95;70.21
69223;BME280;56514;51.816;-0.026;2023-02-16T05:07:47;101440.41;;;9.94;70.58
69223;BME280;56514;51.816;-0.026;2023-02-16T05:10:32;101438.63;;;9.94;70.51
69223;BME280;56514;51.816;-0.026;2023-02-16T05:13:17;101437.75;;;9.94;70.10
69223;BME280;56514;51.816;-0.026;2023-02-16T05:16:23;101437.75;;;9.94;70.35
69223;BME280;56514;51.816;-0.026;2023-02-16T05:19:08;101429.94;;;9.92;70.44
69223;BME280;56514;51.816;-0.026;2023-02-16T05:21:53;101427.38;;;9.91;70.20
69223;BME280;56514;51.816;-0.026;2023-02-16T05:24:38;101427.38;;;9.91;70.30
69223;BME280;56514;51.816;-0.026;2023-02-16T05:27:26;101423.84;;;9.92;70.12
69223;BME280;56514;51.816;-0.026;2023-02-16T05:30:12;101433.25;;;9.96;70.49
69223;BME280;56514;51.816;-0.026;2023-02-16T05:32:58;101420.69;;;10.01;70.03
69223;BME280;56514;51.816;-0.026;2023-02-16T05:35:42;101418.81;;;10.03;70.09
69223;BME280;56514;51.816;-0.026;2023-02-16T05:38:27;101423.84;;;10.07;70.25
69223;BME280;56514;51.816;-0.026;2023-02-16T05:41:12;101411.47;;;10.09;70.07
69223;BME280;56514;51.816;-0.026;2023-02-16T05:44:10;101409.59;;;10.11;70.13
69223;BME280;56514;51.816;-0.026;2023-02-16T05:46:55;101412.81;;;10.16;69.84
69223;BME280;56514;51.816;-0.026;2023-02-16T05:49:39;101404.72;;;10.19;69.57
69223;BME280;56514;51.816;-0.026;2023-02-16T05:52:24;101403.72;;;10.22;69.51
69223;BME280;56514;51.816;-0.026;2023-02-16T05:55:09;101398.47;;;10.22;69.58
69223;BME280;56514;51.816;-0.026;2023-02-16T05:57:55;101385.19;;;10.23;69.19
69223;BME280;56514;51.816;-0.026;2023-02-16T06:00:39;101396.25;;;10.30;69.43
69223;BME280;56514;51.816;-0.026;2023-02-16T06:03:24;101391.72;;;10.32;69.24
69223;BME280;56514;51.816;-0.026;2023-02-16T06:06:10;101393.56;;;10.45;69.23
69223;BME280;56514;51.816;-0.026;2023-02-16T06:08:55;101385.00;;;10.42;68.98
69223;BME280;56514;51.816;-0.026;2023-02-16T06:11:40;101385.00;;;10.42;69.42
69223;BME280;56514;51.816;-0.026;2023-02-16T06:14:25;101385.59;;;10.31;69.70
69223;BME280;56514;51.816;-0.026;2023-02-16T06:17:09;101386.59;;;10.44;69.55
69223;BME280;56514;51.816;-0.026;2023-02-16T06:19:54;101381.59;;;10.40;69.93
69223;BME280;56514;51.816;-0.026;2023-02-16T06:22:39;101382.44;;;10.40;70.39
69223;BME280;56514;51.816;-0.026;2023-02-16T06:25:24;101380.28;;;10.47;70.38
69223;BME280;56514;51.816;-0.026;2023-02-16T06:28:09;101382.28;;;10.43;70.38
69223;BME280;56514;51.816;-0.026;2023-02-16T06:30:54;101380.28;;;10.47;70.91
69223;BME280;56514;51.816;-0.026;2023-02-16T06:33:38;101385.91;;;10.56;70.51
69223;BME280;56514;51.816;-0.026;2023-02-16T06:36:23;101391.88;;;10.44;70.83
69223;BME280;56514;51.816;-0.026;2023-02-16T06:39:08;101392.97;;;10.56;70.87
69223;BME280;56514;51.816;-0.026;2023-02-16T06:41:53;101395.13;;;10.49;71.32
69223;BME280;56514;51.816;-0.026;2023-02-16T06:44:38;101396.97;;;10.47;71.42
69223;BME280;56514;51.816;-0.026;2023-02-16T06:47:28;101400.78;;;10.57;70.87
69223;BME280;56514;51.816;-0.026;2023-02-16T06:50:12;101398.66;;;10.48;71.24
69223;BME280;56514;51.816;-0.026;2023-02-16T06:52:58;101402.97;;;10.65;70.63
69223;BME280;56514;51.816;-0.026;2023-02-16T06:55:42;101415.69;;;10.74;69.85
69223;BME280;56514;51.816;-0.026;2023-02-16T06:58:27;101406.56;;;10.64;70.46
69223;BME280;56514;51.816;-0.026;2023-02-16T07:01:12;101390.31;;;10.56;70.04
69223;BME280;56514;51.816;-0.026;2023-02-16T07:03:57;101387.84;;;10.53;70.83
69223;BME280;56514;51.816;-0.026;2023-02-16T07:06:42;101386.25;;;10.50;70.71
69223;BME280;56514;51.816;-0.026;2023-02-16T07:09:27;101386.84;;;10.55;70.73
69223;BME280;56514;51.816;-0.026;2023-02-16T07:12:11;101389.84;;;10.49;70.78
69223;BME280;56514;51.816;-0.026;2023-02-16T07:14:56;101390.22;;;10.57;70.75
69223;BME280;56514;51.816;-0.026;2023-02-16T07:17:42;101391.09;;;10.58;71.04
69223;BME280;56514;51.816;-0.026;2023-02-16T07:20:26;101392.88;;;10.57;71.57
69223;BME280;56514;51.816;-0.026;2023-02-16T07:23:12;101387.16;;;10.65;71.19
69223;BME280;56514;51.816;-0.026;2023-02-16T07:25:57;101393.63;;;10.59;71.74
69223;BME280;56514;51.816;-0.026;2023-02-16T07:28:42;101392.59;;;10.62;71.25
69223;BME280;56514;51.816;-0.026;2023-02-16T07:31:27;101381.03;;;10.64;71.37
69223;BME280;56514;51.816;-0.026;2023-02-16T07:34:11;101386.28;;;10.80;70.50
69223;BME280;56514;51.816;-0.026;2023-02-16T07:36:56;101387.84;;;10.68;70.92
69223;BME280;56514;51.816;-0.026;2023-02-16T07:39:42;101388.50;;;10.72;70.81
69223;BME280;56514;51.816;-0.026;2023-02-16T07:42:31;101385.78;;;10.74;70.53
69223;BME280;56514;51.816;-0.026;2023-02-16T07:45:16;101388.50;;;10.72;70.43
69223;BME280;56514;51.816;-0.026;2023-02-16T07:48:01;101387.75;;;10.70;70.28
69223;BME280;56514;51.816;-0.026;2023-02-16T07:50:47;101386.47;;;10.77;69.87
69223;BME280;56514;51.816;-0.026;2023-02-16T07:53:32;101384.56;;;10.79;69.74
69223;BME280;56514;51.816;-0.026;2023-02-16T07:56:21;101393.66;;;10.89;69.54
69223;BME280;56514;51.816;-0.026;2023-02-16T07:59:07;101379.06;;;10.98;68.98
69223;BME280;56514;51.816;-0.026;2023-02-16T08:01:51;101380.84;;;10.97;69.16
69223;BME280;56514;51.816;-0.026;2023-02-16T08:04:36;101384.84;;;11.04;69.06
69223;BME280;56514;51.816;-0.026;2023-02-16T08:07:21;101386.91;;;10.99;69.13
69223;BME280;56514;51.816;-0.026;2023-02-16T08:10:07;101381.69;;;10.98;69.60
69223;BME280;56514;51.816;-0.026;2023-02-16T08:12:52;101372.41;;;11.06;69.84
69223;BME280;56514;51.816;-0.026;2023-02-16T08:15:37;101371.22;;;11.26;68.96
69223;BME280;56514;51.816;-0.026;2023-02-16T08:18:25;101385.59;;;11.20;69.17
69223;BME280;56514;51.816;-0.026;2023-02-16T08:21:15;101386.78;;;11.30;69.18
69223;BME280;56514;51.816;-0.026;2023-02-16T08:24:02;101383.47;;;11.27;69.24
69223;BME280;56514;51.816;-0.026;2023-02-16T08:26:48;101388.91;;;11.10;70.34
69223;BME280;56514;51.816;-0.026;2023-02-16T08:29:34;101387.16;;;11.24;69.94
69223;BME280;56514;51.816;-0.026;2023-02-16T08:32:19;101384.78;;;11.20;69.95
69223;BME280;56514;51.816;-0.026;2023-02-16T08:35:04;101389.88;;;11.23;69.95
69223;BME280;56514;51.816;-0.026;2023-02-16T08:37:50;101375.81;;;11.22;69.80
69223;BME280;56514;51.816;-0.026;2023-02-16T08:40:36;101373.84;;;11.26;69.70
69223;BME280;56514;51.816;-0.026;2023-02-16T08:43:20;101368.38;;;11.29;69.78
69223;BME280;56514;51.816;-0.026;2023-02-16T08:46:06;101382.69;;;11.25;70.43
69223;BME280;56514;51.816;-0.026;2023-02-16T08:48:51;101372.34;;;11.36;69.61
69223;BME280;56514;51.816;-0.026;2023-02-16T08:51:40;101374.59;;;11.42;69.07
69223;BME280;56514;51.816;-0.026;2023-02-16T08:54:28;101366.09;;;11.37;69.21
69223;BME280;56514;51.816;-0.026;2023-02-16T08:57:13;101371.88;;;11.43;69.15
69223;BME280;56514;51.816;-0.026;2023-02-16T08:59:59;101368.75;;;11.37;69.83
69223;BME280;56514;51.816;-0.026;2023-02-16T09:03:03;101372.63;;;11.45;69.34
69223;BME280;56514;51.816;-0.026;2023-02-16T09:05:50;101372.53;;;11.47;69.45
69223;BME280;56514;51.816;-0.026;2023-02-16T09:08:36;101370.00;;;11.59;69.30
69223;BME280;56514;51.816;-0.026;2023-02-16T09:11:24;101369.47;;;11.68;68.71
69223;BME280;56514;51.816;-0.026;2023-02-16T09:14:09;101370.56;;;11.64;69.39
69223;BME280;56514;51.816;-0.026;2023-02-16T09:16:54;101373.13;;;11.66;69.03
69223;BME280;56514;51.816;-0.026;2023-02-16T09:19:39;101371.72;;;11.74;69.04
69223;BME280;56514;51.816;-0.026;2023-02-16T09:22:24;101368.50;;;11.69;69.48
69223;BME280;56514;51.816;-0.026;2023-02-16T09:25:09;101371.63;;;11.76;69.41
69223;BME280;56514;51.816;-0.026;2023-02-16T09:27:55;101367.91;;;11.92;69.26
69223;BME280;56514;51.816;-0.026;2023-02-16T09:30:40;101371.34;;;11.80;69.92
69223;BME280;56514;51.816;-0.026;2023-02-16T09:33:24;101359.31;;;11.89;69.16
69223;BME280;56514;51.816;-0.026;2023-02-16T09:36:11;101370.47;;;11.80;70.34
69223;BME280;56514;51.816;-0.026;2023-02-16T09:38:56;101375.09;;;11.90;70.07
69223;BME280;56514;51.816;-0.026;2023-02-16T09:45:18;101387.66;;;11.87;70.74
69223;BME280;56514;51.816;-0.026;2023-02-16T09:48:04;101384.34;;;11.97;70.49
69223;BME280;56514;51.816;-0.026;2023-02-16T09:50:52;101371.84;;;11.99;70.40
69223;BME280;56514;51.816;-0.026;2023-02-16T09:53:40;101373.97;;;11.94;70.90
69223;BME280;56514;51.816;-0.026;2023-02-16T09:56:37;101373.44;;;12.16;70.47
69223;BME280;56514;51.816;-0.026;2023-02-16T09:59:38;101373.00;;;12.09;70.94
69223;BME280;56514;51.816;-0.026;2023-02-16T10:08:49;101362.59;;;12.33;71.05
69223;BME280;56514;51.816;-0.026;2023-02-16T10:11:49;101364.03;;;12.38;70.77
69223;BME280;56514;51.816;-0.026;2023-02-16T10:14:46;101366.78;;;12.37;70.96
69223;BME280;56514;51.816;-0.026;2023-02-16T10:20:30;101371.22;;;12.36;71.43
69223;BME280;56514;51.816;-0.026;2023-02-16T10:24:10;101359.25;;;12.43;71.61
69223;BME280;56514;51.816;-0.026;2023-02-16T10:26:39;101365.97;;;12.62;70.99
69223;BME280;56514;51.816;-0.026;2023-02-16T10:29:26;101373.09;;;12.61;71.14
69223;BME280;56514;51.816;-0.026;2023-02-16T10:32:31;101373.31;;;12.58;71.36
69223;BME280;56514;51.816;-0.026;2023-02-16T10:35:28;101365.81;;;12.65;71.71
69223;BME280;56514;51.816;-0.026;2023-02-16T10:38:42;101363.47;;;12.73;71.08
69223;BME280;56514;51.816;-0.026;2023-02-16T10:41:39;101355.03;;;12.68;71.60
69223;BME280;56514;51.816;-0.026;2023-02-16T10:44:33;101346.78;;;12.72;71.97
69223;BME280;56514;51.816;-0.026;2023-02-16T10:47:31;101348.91;;;12.92;71.24
69223;BME280;56514;51.816;-0.026;2023-02-16T10:50:30;101350.56;;;13.07;70.97
69223;BME280;56514;51.816;-0.026;2023-02-16T10:53:44;101354.72;;;13.24;70.44
69223;BME280;56514;51.816;-0.026;2023-02-16T10:56:46;101354.72;;;13.24;70.43
69223;BME280;56514;51.816;-0.026;2023-02-16T10:59:38;101352.34;;;13.32;70.40
69223;BME280;56514;51.816;-0.026;2023-02-16T11:02:42;101353.84;;;13.36;70.34
69223;BME280;56514;51.816;-0.026;2023-02-16T11:05:35;101355.13;;;13.43;70.04
69223;BME280;56514;51.816;-0.026;2023-02-16T11:08:21;101347.91;;;13.45;69.58
69223;BME280;56514;51.816;-0.026;2023-02-16T11:11:08;101359.88;;;13.38;70.25
69223;BME280;56514;51.816;-0.026;2023-02-16T11:14:00;101359.06;;;13.50;69.49
69223;BME280;56514;51.816;-0.026;2023-02-16T11:16:46;101361.59;;;13.39;70.13
69223;BME280;56514;51.816;-0.026;2023-02-16T11:19:33;101343.97;;;13.38;70.55
69223;BME280;56514;51.816;-0.026;2023-02-16T11:22:34;101340.28;;;13.53;70.21
69223;BME280;56514;51.816;-0.026;2023-02-16T11:25:24;101344.72;;;13.52;70.27
69223;BME280;56514;51.816;-0.026;2023-02-16T11:28:10;101337.41;;;13.56;70.13
69223;BME280;56514;51.816;-0.026;2023-02-16T11:31:03;101348.34;;;13.51;70.16
69223;BME280;56514;51.816;-0.026;2023-02-16T11:36:47;101344.09;;;13.49;70.46
69223;BME280;56514;51.816;-0.026;2023-02-16T11:39:36;101351.81;;;13.52;70.34
69223;BME280;56514;51.816;-0.026;2023-02-16T11:45:23;101359.06;;;13.50;70.64
69223;BME280;56514;51.816;-0.026;2023-02-16T11:48:13;101364.56;;;13.47;70.93
69223;BME280;56514;51.816;-0.026;2023-02-16T11:51:04;101358.94;;;13.51;70.85
69223;BME280;56514;51.816;-0.026;2023-02-16T11:53:59;101359.25;;;13.47;70.93
69223;BME280;56514;51.816;-0.026;2023-02-16T11:57:00;101356.41;;;13.50;70.94
69223;BME280;56514;51.816;-0.026;2023-02-16T11:59:46;101352.56;;;13.54;71.00
69223;BME280;56514;51.816;-0.026;2023-02-16T12:09:19;101318.56;;;13.84;70.54
69223;BME280;56514;51.816;-0.026;2023-02-16T12:12:14;101303.63;;;13.83;70.54
69223;BME280;56514;51.816;-0.026;2023-02-16T12:21:31;101295.75;;;13.94;70.82
69223;BME280;56514;51.816;-0.026;2023-02-16T12:27:27;101305.78;;;14.01;71.11
69223;BME280;56514;51.816;-0.026;2023-02-16T12:30:44;101296.00;;;14.02;70.83
69223;BME280;56514;51.816;-0.026;2023-02-16T12:33:47;101295.06;;;14.03;70.80
69223;BME280;56514;51.816;-0.026;2023-02-16T12:36:49;101301.53;;;13.99;70.94
69223;BME280;56514;51.816;-0.026;2023-02-16T12:46:42;101290.63;;;14.27;70.33
69223;BME280;56514;51.816;-0.026;2023-02-16T12:49:52;101295.78;;;14.52;69.61
69223;BME280;56514;51.816;-0.026;2023-02-16T12:52:41;101284.94;;;14.55;69.37
69223;BME280;56514;51.816;-0.026;2023-02-16T12:55:49;101282.06;;;14.58;69.46
69223;BME280;56514;51.816;-0.026;2023-02-16T12:58:40;101293.97;;;14.76;68.43
69223;BME280;56514;51.816;-0.026;2023-02-16T13:01:30;101295.69;;;14.99;67.90
69223;BME280;56514;51.816;-0.026;2023-02-16T13:04:36;101283.16;;;15.23;67.30
69223;BME280;56514;51.816;-0.026;2023-02-16T13:07:30;101285.22;;;15.31;66.28
69223;BME280;56514;51.816;-0.026;2023-02-16T13:10:32;101285.91;;;15.33;66.01
69223;BME280;56514;51.816;-0.026;2023-02-16T13:13:24;101278.06;;;15.31;65.97
69223;BME280;56514;51.816;-0.026;2023-02-16T13:19:34;101280.03;;;15.29;66.18
69223;BME280;56514;51.816;-0.026;2023-02-16T13:22:54;101283.31;;;15.44;66.43
69223;BME280;56514;51.816;-0.026;2023-02-16T13:25:56;101286.78;;;15.66;65.17
69223;BME280;56514;51.816;-0.026;2023-02-16T13:35:33;101280.00;;;15.85;65.21
69223;BME280;56514;51.816;-0.026;2023-02-16T13:38:27;101285.28;;;15.96;63.90
69223;BME280;56514;51.816;-0.026;2023-02-16T13:44:55;101296.72;;;15.42;65.81
69223;BME280;56514;51.816;-0.026;2023-02-16T13:47:42;101296.91;;;15.28;66.27
69223;BME280;56514;51.816;-0.026;2023-02-16T13:50:32;101308.75;;;15.13;67.00
69223;BME280;56514;51.816;-0.026;2023-02-16T13:53:19;101306.41;;;14.87;68.24
69223;BME280;56514;51.816;-0.026;2023-02-16T14:02:00;101294.03;;;14.29;70.88
69223;BME280;56514;51.816;-0.026;2023-02-16T14:07:34;101289.81;;;14.14;72.30
69223;BME280;56514;51.816;-0.026;2023-02-16T14:16:28;101292.22;;;13.93;73.72
69223;BME280;56514;51.816;-0.026;2023-02-16T14:19:22;101278.22;;;13.91;74.12
69223;BME280;56514;51.816;-0.026;2023-02-16T14:22:09;101278.72;;;13.73;74.73
69223;BME280;56514;51.816;-0.026;2023-02-16T14:24:58;101280.88;;;13.68;75.60
69223;BME280;56514;51.816;-0.026;2023-02-16T14:30:51;101273.47;;;13.60;76.24
69223;BME280;56514;51.816;-0.026;2023-02-16T14:33:44;101283.22;;;13.60;76.57
69223;BME280;56514;51.816;-0.026;2023-02-16T14:36:32;101273.91;;;13.54;76.69
69223;BME280;56514;51.816;-0.026;2023-02-16T14:39:19;101271.59;;;13.50;76.93
69223;BME280;56514;51.816;-0.026;2023-02-16T14:42:28;101275.91;;;13.51;77.08
69223;BME280;56514;51.816;-0.026;2023-02-16T14:45:41;101267.41;;;13.58;77.52
69223;BME280;56514;51.816;-0.026;2023-02-16T14:54:34;101258.94;;;13.89;75.84
69223;BME280;56514;51.816;-0.026;2023-02-16T14:57:34;101257.19;;;14.01;74.91
69223;BME280;56514;51.816;-0.026;2023-02-16T15:00:42;101253.56;;;14.02;75.06
69223;BME280;56514;51.816;-0.026;2023-02-16T15:03:42;101241.94;;;14.15;74.45
69223;BME280;56514;51.816;-0.026;2023-02-16T15:06:43;101245.09;;;14.21;74.14
69223;BME280;56514;51.816;-0.026;2023-02-16T15:09:32;101244.97;;;14.22;73.93
69223;BME280;56514;51.816;-0.026;2023-02-16T15:12:18;101243.38;;;14.32;73.70
69223;BME280;56514;51.816;-0.026;2023-02-16T15:15:10;101245.22;;;14.43;72.60
69223;BME280;56514;51.816;-0.026;2023-02-16T15:18:02;101249.47;;;14.56;71.88
69223;BME280;56514;51.816;-0.026;2023-02-16T15:20:52;101244.63;;;14.50;72.34
69223;BME280;56514;51.816;-0.026;2023-02-16T15:23:50;101237.31;;;14.65;71.64
69223;BME280;56514;51.816;-0.026;2023-02-16T15:26:35;101244.44;;;14.75;71.34
69223;BME280;56514;51.816;-0.026;2023-02-16T15:29:24;101237.34;;;14.87;70.91
69223;BME280;56514;51.816;-0.026;2023-02-16T15:32:14;101248.94;;;14.97;69.79
69223;BME280;56514;51.816;-0.026;2023-02-16T15:35:21;101251.38;;;15.00;70.18
69223;BME280;56514;51.816;-0.026;2023-02-16T15:38:19;101255.63;;;15.02;70.20
69223;BME280;56514;51.816;-0.026;2023-02-16T15:41:08;101244.25;;;15.11;69.03
69223;BME280;56514;51.816;-0.026;2023-02-16T15:43:53;101244.03;;;15.14;68.86
69223;BME280;56514;51.816;-0.026;2023-02-16T15:46:40;101239.16;;;15.19;68.73
69223;BME280;56514;51.816;-0.026;2023-02-16T15:49:28;101239.16;;;15.19;68.59
69223;BME280;56514;51.816;-0.026;2023-02-16T15:52:26;101229.75;;;15.04;69.00
69223;BME280;56514;51.816;-0.026;2023-02-16T15:55:12;101232.16;;;15.07;68.79
69223;BME280;56514;51.816;-0.026;2023-02-16T15:57:57;101232.16;;;14.96;69.21
69223;BME280;56514;51.816;-0.026;2023-02-16T16:00:44;101225.63;;;14.89;69.69
69223;BME280;56514;51.816;-0.026;2023-02-16T16:03:32;101229.13;;;15.01;68.96
69223;BME280;56514;51.816;-0.026;2023-02-16T16:06:17;101234.69;;;14.87;69.27
69223;BME280;56514;51.816;-0.026;2023-02-16T16:09:03;101244.00;;;14.92;69.57
69223;BME280;56514;51.816;-0.026;2023-02-16T16:11:56;101248.22;;;14.95;68.86
69223;BME280;56514;51.816;-0.026;2023-02-16T16:14:56;101253.28;;;14.87;69.58
69223;BME280;56514;51.816;-0.026;2023-02-16T16:17:42;101249.69;;;15.10;68.89
69223;BME280;56514;51.816;-0.026;2023-02-16T16:20:30;101260.19;;;15.22;68.34
69223;BME280;56514;51.816;-0.026;2023-02-16T16:26:00;101260.06;;;15.35;67.74
69223;BME280;56514;51.816;-0.026;2023-02-16T16:28:49;101252.22;;;15.33;67.04
69223;BME280;56514;51.816;-0.026;2023-02-16T16:31:39;101259.59;;;15.19;67.70
69223;BME280;56514;51.816;-0.026;2023-02-16T16:34:36;101255.00;;;15.10;67.98
69223;BME280;56514;51.816;-0.026;2023-02-16T16:37:26;101256.06;;;14.96;68.32
69223;BME280;56514;51.816;-0.026;2023-02-16T16:45:54;101254.47;;;14.83;68.69
69223;BME280;56514;51.816;-0.026;2023-02-16T16:48:51;101267.63;;;14.73;68.44
69223;BME280;56514;51.816;-0.026;2023-02-16T16:51:40;101268.00;;;14.69;68.56